Terminal Aerodrome Forecast
Issued by NWS

Home | Current Version | Previous Version | Text Only | Print | Product List | Glossary On
Versions: 1 2 3 4 5 6 7 8 9 10 11 12 13 14 15 16 17 18 19 20 21 22 23 24 25 26
362
FTUS43 KABR 300106 AAA
TAFATY
TAF AMD
KATY 300106Z 3001/3024 VRB15G25KT P6SM VCTS SCT040 BKN060CB OVC100
      TEMPO 3001/3003 VRB20G35KT 3SM -TSRA BKN035 OVC060CB
     FM300300 07006KT P6SM VCTS SCT100CB BKN200CB
     FM300400 06006KT P6SM SCT200
     FM301700 06010KT P6SM FEW250=

USA.gov is the U.S. government's official web portal to all federal, state and local government web resources and services.